EXS3XZ EGNT-LEAL
Flight info
| Callsign | EXS3XZ |
|---|---|
| Flight time | N/A |
| Altitude | 37000 |
| Route | GIRLI P18 GASKO P16 RIBEL UP16 NOKIN N862 KARNO DCT ALHUP DCT ABWIV DCT PACSE DCT TONQU DCT SALCO DCT NENEM DCT BADRU P152 PPN DCT NOLSA N857 VASUM DCT BANEV DCT BAN DCT PINAR DCT CJN DCT VILLA DCT NANDO DCT MOTIL L150 ASTRO |
| Aircraft | B738/M-SDE2E3FGHIRWXY/LB1 |
Departure
| Time | 2026-04-28 20:24 |
|---|---|
| Airport | Newcastle International Airport (EGNT) |
Arrival
| Time | N/A |
|---|---|
| Airport | Alicante-Elche Miguel Hernández Airport (LEAL) |
| Time | Latitude | Longitude | Altitude | Speed | Heading |
|---|---|---|---|---|---|
| 2026-04-28 20:14 | 55.03659 | -1.70701 | 270 ft | 0 kts | 4° |
| 2026-04-28 20:17 | 55.03657 | -1.70701 | 270 ft | 1 kts | 3° |
| 2026-04-28 20:17 | 55.03642 | -1.70707 | 270 ft | 2 kts | 24° |
| 2026-04-28 20:17 | 55.03630 | -1.70720 | 270 ft | 2 kts | 39° |
| 2026-04-28 20:17 | 55.03619 | -1.70739 | 271 ft | 2 kts | 55° |
| 2026-04-28 20:18 | 55.03612 | -1.70762 | 271 ft | 2 kts | 71° |
| 2026-04-28 20:18 | 55.03610 | -1.70779 | 272 ft | 2 kts | 82° |
| 2026-04-28 20:18 | 55.03610 | -1.70795 | 272 ft | 0 kts | 90° |
| 2026-04-28 20:20 | 55.03610 | -1.70779 | 271 ft | 0 kts | 90° |
| 2026-04-28 20:20 | 55.03609 | -1.70755 | 271 ft | 8 kts | 90° |
| 2026-04-28 20:21 | 55.03609 | -1.70615 | 268 ft | 12 kts | 89° |
| 2026-04-28 20:21 | 55.03610 | -1.70462 | 266 ft | 11 kts | 89° |
| 2026-04-28 20:21 | 55.03603 | -1.70432 | 266 ft | 1 kts | 218° |
| 2026-04-28 20:21 | 55.03601 | -1.70463 | 266 ft | 3 kts | 265° |
| 2026-04-28 20:22 | 55.03598 | -1.70528 | 266 ft | 4 kts | 265° |
| 2026-04-28 20:22 | 55.03594 | -1.70598 | 268 ft | 7 kts | 255° |
| 2026-04-28 20:22 | 55.03562 | -1.70633 | 269 ft | 5 kts | 186° |
| 2026-04-28 20:22 | 55.03471 | -1.70643 | 269 ft | 17 kts | 182° |
| 2026-04-28 20:23 | 55.03360 | -1.70590 | 268 ft | 13 kts | 109° |
| 2026-04-28 20:23 | 55.03394 | -1.70485 | 266 ft | 9 kts | 62° |
| 2026-04-28 20:23 | 55.03430 | -1.70350 | 266 ft | 28 kts | 65° |
| 2026-04-28 20:23 | 55.03649 | -1.69541 | 251 ft | 116 kts | 65° |
| 2026-04-28 20:24 | 55.04082 | -1.67861 | 266 ft | 182 kts | 67° |
| 2026-04-28 20:24 | 55.04537 | -1.65700 | 1089 ft | 191 kts | 71° |
| 2026-04-28 20:24 | 55.05148 | -1.63773 | 1983 ft | 188 kts | 56° |
| 2026-04-28 20:24 | 55.05894 | -1.61789 | 2506 ft | 200 kts | 66° |
| 2026-04-28 20:25 | 55.06134 | -1.59455 | 3240 ft | 199 kts | 95° |
| 2026-04-28 20:25 | 55.05756 | -1.57112 | 3893 ft | 208 kts | 112° |
| 2026-04-28 20:25 | 55.04969 | -1.54955 | 4580 ft | 218 kts | 129° |
| 2026-04-28 20:25 | 55.03659 | -1.53475 | 5063 ft | 242 kts | 158° |
| 2026-04-28 20:26 | 55.01922 | -1.53103 | 5557 ft | 263 kts | 175° |
| 2026-04-28 20:26 | 55.00035 | -1.53150 | 6083 ft | 277 kts | 176° |
| 2026-04-28 20:26 | 54.98107 | -1.53362 | 6837 ft | 283 kts | 184° |
| 2026-04-28 20:26 | 54.96213 | -1.54353 | 7525 ft | 294 kts | 202° |
| 2026-04-28 20:27 | 54.94416 | -1.56110 | 8218 ft | 301 kts | 208° |
| 2026-04-28 20:27 | 54.92636 | -1.58071 | 8453 ft | 306 kts | 209° |
| 2026-04-28 20:27 | 54.90830 | -1.60062 | 8480 ft | 303 kts | 208° |
| 2026-04-28 20:27 | 54.89030 | -1.61993 | 8481 ft | 300 kts | 208° |
| 2026-04-28 20:28 | 54.87232 | -1.63871 | 8774 ft | 298 kts | 207° |
| 2026-04-28 20:28 | 54.85422 | -1.65729 | 9208 ft | 311 kts | 207° |
| 2026-04-28 20:28 | 54.83497 | -1.67693 | 9645 ft | 326 kts | 207° |
| 2026-04-28 20:28 | 54.81539 | -1.69688 | 10072 ft | 336 kts | 207° |
| 2026-04-28 20:29 | 54.79513 | -1.71759 | 10496 ft | 340 kts | 207° |
| 2026-04-28 20:29 | 54.77457 | -1.73862 | 10915 ft | 342 kts | 207° |
| 2026-04-28 20:29 | 54.75375 | -1.75989 | 11361 ft | 346 kts | 207° |
| 2026-04-28 20:29 | 54.73304 | -1.78100 | 11786 ft | 347 kts | 207° |
| 2026-04-28 20:30 | 54.71199 | -1.80044 | 12212 ft | 347 kts | 200° |
| 2026-04-28 20:30 | 54.68895 | -1.81380 | 12643 ft | 347 kts | 189° |
| 2026-04-28 20:30 | 54.66549 | -1.82188 | 13058 ft | 347 kts | 184° |
| 2026-04-28 20:30 | 54.64148 | -1.82820 | 13475 ft | 349 kts | 183° |
| 2026-04-28 20:31 | 54.61750 | -1.83429 | 13893 ft | 352 kts | 183° |
| 2026-04-28 20:31 | 54.59335 | -1.84090 | 14313 ft | 356 kts | 184° |
| 2026-04-28 20:31 | 54.56866 | -1.84819 | 14729 ft | 358 kts | 185° |
| 2026-04-28 20:31 | 54.54444 | -1.85567 | 15141 ft | 359 kts | 185° |
| 2026-04-28 20:32 | 54.51964 | -1.86348 | 15565 ft | 362 kts | 185° |
| 2026-04-28 20:32 | 54.49503 | -1.87125 | 15984 ft | 366 kts | 185° |
| 2026-04-28 20:32 | 54.47002 | -1.87915 | 16408 ft | 368 kts | 185° |
| 2026-04-28 20:32 | 54.44471 | -1.88716 | 16832 ft | 367 kts | 185° |
| 2026-04-28 20:33 | 54.41955 | -1.89507 | 17247 ft | 370 kts | 185° |
| 2026-04-28 20:33 | 54.39424 | -1.90299 | 17668 ft | 374 kts | 185° |
| 2026-04-28 20:33 | 54.36853 | -1.91102 | 18086 ft | 375 kts | 185° |
| 2026-04-28 20:33 | 54.34293 | -1.91900 | 18504 ft | 379 kts | 185° |
| 2026-04-28 20:34 | 54.31675 | -1.92713 | 18928 ft | 380 kts | 185° |
| 2026-04-28 20:34 | 54.29104 | -1.93515 | 19346 ft | 382 kts | 185° |
| 2026-04-28 20:34 | 54.26487 | -1.94358 | 19767 ft | 386 kts | 187° |
| 2026-04-28 20:34 | 54.23895 | -1.95586 | 20185 ft | 393 kts | 196° |
| 2026-04-28 20:35 | 54.21391 | -1.97595 | 20607 ft | 402 kts | 207° |
| 2026-04-28 20:35 | 54.19105 | -2.00349 | 21027 ft | 406 kts | 217° |
| 2026-04-28 20:35 | 54.16978 | -2.03551 | 21445 ft | 412 kts | 221° |
| 2026-04-28 20:35 | 54.14900 | -2.06974 | 21871 ft | 415 kts | 223° |
| 2026-04-28 20:36 | 54.12855 | -2.10428 | 22285 ft | 418 kts | 223° |
| 2026-04-28 20:36 | 54.10782 | -2.13914 | 22710 ft | 422 kts | 222° |
| 2026-04-28 20:36 | 54.08686 | -2.17397 | 23133 ft | 424 kts | 222° |
| 2026-04-28 20:36 | 54.06571 | -2.20869 | 23555 ft | 426 kts | 221° |
| 2026-04-28 20:37 | 54.04414 | -2.24348 | 23976 ft | 429 kts | 221° |
| 2026-04-28 20:37 | 54.02177 | -2.27652 | 24403 ft | 430 kts | 214° |
| 2026-04-28 20:37 | 53.99650 | -2.30418 | 24846 ft | 427 kts | 204° |
| 2026-04-28 20:37 | 53.96980 | -2.32538 | 25280 ft | 426 kts | 198° |
| 2026-04-28 20:38 | 53.94245 | -2.34331 | 25719 ft | 426 kts | 195° |
| 2026-04-28 20:38 | 53.91455 | -2.36011 | 26169 ft | 427 kts | 194° |
| 2026-04-28 20:38 | 53.88649 | -2.37663 | 26619 ft | 428 kts | 194° |
| 2026-04-28 20:38 | 53.85817 | -2.39347 | 27069 ft | 429 kts | 194° |
| 2026-04-28 20:39 | 53.83030 | -2.41039 | 27512 ft | 430 kts | 195° |
| 2026-04-28 20:39 | 53.80228 | -2.42774 | 27964 ft | 430 kts | 195° |
| 2026-04-28 20:39 | 53.77394 | -2.44555 | 28419 ft | 430 kts | 195° |
| 2026-04-28 20:39 | 53.74610 | -2.46318 | 28869 ft | 429 kts | 195° |
| 2026-04-28 20:40 | 53.71842 | -2.48070 | 29319 ft | 428 kts | 195° |
| 2026-04-28 20:40 | 53.69072 | -2.49823 | 29771 ft | 426 kts | 195° |
| 2026-04-28 20:40 | 53.66300 | -2.51581 | 30225 ft | 424 kts | 195° |
| 2026-04-28 20:40 | 53.63551 | -2.53325 | 30676 ft | 422 kts | 195° |
| 2026-04-28 20:41 | 53.60830 | -2.55050 | 31124 ft | 419 kts | 195° |
| 2026-04-28 20:41 | 53.58102 | -2.56780 | 31575 ft | 416 kts | 194° |
| 2026-04-28 20:41 | 53.55442 | -2.58461 | 32019 ft | 412 kts | 195° |
| 2026-04-28 20:41 | 53.52755 | -2.60160 | 32472 ft | 408 kts | 195° |
| 2026-04-28 20:42 | 53.50126 | -2.61823 | 32921 ft | 403 kts | 194° |
| 2026-04-28 20:42 | 53.47538 | -2.63455 | 33370 ft | 397 kts | 194° |
| 2026-04-28 20:42 | 53.44973 | -2.65072 | 33816 ft | 389 kts | 193° |
| 2026-04-28 20:42 | 53.42480 | -2.66642 | 34267 ft | 381 kts | 193° |
| 2026-04-28 20:43 | 53.40019 | -2.68183 | 34356 ft | 385 kts | 193° |
| 2026-04-28 20:43 | 53.34893 | -2.71348 | 34271 ft | 399 kts | 193° |
| 2026-04-28 20:44 | 53.29600 | -2.74629 | 34262 ft | 413 kts | 193° |
| 2026-04-28 20:44 | 53.24172 | -2.78000 | 34254 ft | 426 kts | 193° |
| 2026-04-28 20:45 | 53.18538 | -2.81491 | 34251 ft | 440 kts | 193° |
| 2026-04-28 20:45 | 53.12730 | -2.85081 | 34250 ft | 454 kts | 193° |
| 2026-04-28 20:46 | 53.06676 | -2.88415 | 34250 ft | 462 kts | 187° |
| 2026-04-28 20:46 | 53.00332 | -2.89935 | 34244 ft | 465 kts | 175° |
| 2026-04-28 20:47 | 52.93811 | -2.90090 | 34243 ft | 470 kts | 170° |
| 2026-04-28 20:47 | 52.87265 | -2.90090 | 34235 ft | 476 kts | 175° |
| 2026-04-28 20:48 | 52.80664 | -2.91374 | 34237 ft | 480 kts | 181° |
| 2026-04-28 20:48 | 52.74096 | -2.93130 | 34228 ft | 481 kts | 182° |
| 2026-04-28 20:49 | 52.67504 | -2.94676 | 34226 ft | 476 kts | 177° |
| 2026-04-28 20:49 | 52.60941 | -2.95320 | 34216 ft | 471 kts | 173° |
| 2026-04-28 20:50 | 52.54413 | -2.95708 | 34210 ft | 472 kts | 173° |
| 2026-04-28 20:50 | 52.47826 | -2.96129 | 34212 ft | 471 kts | 174° |
| 2026-04-28 20:51 | 52.41317 | -2.96609 | 34208 ft | 470 kts | 174° |
| 2026-04-28 20:51 | 52.34794 | -2.97122 | 34202 ft | 470 kts | 174° |
| 2026-04-28 20:52 | 52.28216 | -2.97647 | 34200 ft | 473 kts | 174° |
| 2026-04-28 20:52 | 52.21695 | -2.98183 | 34198 ft | 471 kts | 174° |
| 2026-04-28 20:53 | 52.11879 | -2.98973 | 34192 ft | 472 kts | 174° |
| 2026-04-28 20:53 | 52.05351 | -2.99506 | 34189 ft | 470 kts | 174° |
| 2026-04-28 20:54 | 51.98814 | -3.00034 | 34186 ft | 469 kts | 174° |
| 2026-04-28 20:54 | 51.92342 | -3.00556 | 34144 ft | 467 kts | 174° |
| 2026-04-28 20:55 | 51.85813 | -3.01135 | 34178 ft | 474 kts | 176° |
| 2026-04-28 20:55 | 51.79303 | -3.02354 | 34150 ft | 475 kts | 179° |
| 2026-04-28 20:56 | 51.72775 | -3.03853 | 34162 ft | 476 kts | 180° |
| 2026-04-28 20:56 | 51.66185 | -3.05340 | 34144 ft | 476 kts | 180° |
| 2026-04-28 20:57 | 51.59664 | -3.06764 | 34152 ft | 471 kts | 179° |
| 2026-04-28 20:57 | 51.53186 | -3.08142 | 34148 ft | 472 kts | 179° |
| 2026-04-28 20:58 | 51.46627 | -3.09489 | 34128 ft | 476 kts | 180° |
| 2026-04-28 20:58 | 51.40125 | -3.10826 | 34123 ft | 472 kts | 180° |
| 2026-04-28 20:59 | 51.33629 | -3.12163 | 34121 ft | 471 kts | 180° |
| 2026-04-28 20:59 | 51.27114 | -3.13500 | 34112 ft | 473 kts | 180° |
| 2026-04-28 21:00 | 51.20590 | -3.14826 | 34118 ft | 473 kts | 180° |
| 2026-04-28 21:00 | 51.14035 | -3.16158 | 34097 ft | 473 kts | 180° |
| 2026-04-28 21:01 | 51.07536 | -3.17486 | 34082 ft | 471 kts | 180° |
| 2026-04-28 21:01 | 51.01065 | -3.18798 | 34098 ft | 470 kts | 180° |
| 2026-04-28 21:02 | 50.94576 | -3.20104 | 34088 ft | 472 kts | 180° |
| 2026-04-28 21:02 | 50.88073 | -3.21410 | 34089 ft | 470 kts | 180° |
| 2026-04-28 21:03 | 50.81586 | -3.22708 | 34087 ft | 471 kts | 180° |
| 2026-04-28 21:03 | 50.75132 | -3.24007 | 34087 ft | 466 kts | 181° |
| 2026-04-28 21:04 | 50.68691 | -3.25293 | 34082 ft | 469 kts | 181° |
| 2026-04-28 21:04 | 50.65452 | -3.25936 | 34211 ft | 471 kts | 181° |
| 2026-04-28 21:04 | 50.62201 | -3.26579 | 34326 ft | 474 kts | 181° |
| 2026-04-28 21:05 | 50.58938 | -3.27224 | 34859 ft | 466 kts | 182° |
| 2026-04-28 21:05 | 50.55804 | -3.27852 | 35417 ft | 457 kts | 182° |
| 2026-04-28 21:05 | 50.52640 | -3.28483 | 35556 ft | 459 kts | 182° |
| 2026-04-28 21:05 | 50.49456 | -3.29107 | 35675 ft | 462 kts | 182° |
| 2026-04-28 21:06 | 50.46292 | -3.29725 | 35961 ft | 460 kts | 182° |
| 2026-04-28 21:06 | 50.43124 | -3.30347 | 36323 ft | 457 kts | 183° |
| 2026-04-28 21:06 | 50.39962 | -3.30972 | 36610 ft | 455 kts | 183° |
| 2026-04-28 21:06 | 50.36833 | -3.31668 | 36841 ft | 456 kts | 186° |
| 2026-04-28 21:07 | 50.33718 | -3.32576 | 36953 ft | 460 kts | 187° |
| 2026-04-28 21:07 | 50.30584 | -3.33628 | 37115 ft | 462 kts | 189° |
| 2026-04-28 21:07 | 50.24294 | -3.35863 | 37194 ft | 464 kts | 189° |
| 2026-04-28 21:08 | 50.18057 | -3.38075 | 37194 ft | 458 kts | 189° |
| 2026-04-28 21:08 | 50.11871 | -3.40210 | 37164 ft | 459 kts | 189° |
| 2026-04-28 21:09 | 50.05647 | -3.42320 | 37167 ft | 460 kts | 189° |
| 2026-04-28 21:09 | 49.99390 | -3.44422 | 37176 ft | 457 kts | 189° |
| 2026-04-28 21:10 | 49.93176 | -3.46494 | 37188 ft | 458 kts | 189° |
| 2026-04-28 21:10 | 49.86964 | -3.48559 | 37235 ft | 459 kts | 189° |
| 2026-04-28 21:11 | 49.80744 | -3.50623 | 37170 ft | 455 kts | 189° |
| 2026-04-28 21:11 | 49.74509 | -3.52463 | 37163 ft | 454 kts | 184° |
| 2026-04-28 21:12 | 49.68235 | -3.52870 | 37162 ft | 452 kts | 175° |
| 2026-04-28 21:12 | 49.61969 | -3.52395 | 37159 ft | 449 kts | 173° |
| 2026-04-28 21:13 | 49.55740 | -3.51783 | 37160 ft | 449 kts | 174° |
| 2026-04-28 21:13 | 49.49538 | -3.51231 | 37149 ft | 450 kts | 174° |
| 2026-04-28 21:14 | 49.43301 | -3.50729 | 37152 ft | 450 kts | 174° |
| 2026-04-28 21:14 | 49.37050 | -3.50257 | 37142 ft | 450 kts | 175° |
| 2026-04-28 21:15 | 49.30815 | -3.49795 | 37141 ft | 451 kts | 175° |
| 2026-04-28 21:15 | 49.24542 | -3.49334 | 37139 ft | 450 kts | 175° |
| 2026-04-28 21:16 | 49.18308 | -3.48877 | 37122 ft | 449 kts | 175° |
| 2026-04-28 21:16 | 49.12090 | -3.48425 | 37129 ft | 449 kts | 175° |
| 2026-04-28 21:17 | 49.05843 | -3.47973 | 37122 ft | 449 kts | 175° |
| 2026-04-28 21:17 | 48.99617 | -3.47526 | 37120 ft | 448 kts | 176° |
| 2026-04-28 21:18 | 48.93414 | -3.47078 | 37117 ft | 450 kts | 176° |
| 2026-04-28 21:18 | 48.87126 | -3.46627 | 37114 ft | 450 kts | 176° |
| 2026-04-28 21:19 | 48.80911 | -3.46183 | 37111 ft | 449 kts | 176° |
| 2026-04-28 21:19 | 48.74652 | -3.45735 | 37113 ft | 451 kts | 176° |
| 2026-04-28 21:20 | 48.68422 | -3.45291 | 37109 ft | 450 kts | 176° |
| 2026-04-28 21:20 | 48.62166 | -3.44847 | 37102 ft | 449 kts | 176° |
| 2026-04-28 21:21 | 48.55916 | -3.44404 | 37087 ft | 449 kts | 176° |
| 2026-04-28 21:21 | 48.49677 | -3.43962 | 37075 ft | 449 kts | 176° |
| 2026-04-28 21:22 | 48.43454 | -3.43522 | 37072 ft | 449 kts | 177° |
| 2026-04-28 21:22 | 48.38245 | -3.43155 | 37070 ft | 449 kts | 177° |
| 2026-04-28 21:23 | 48.30973 | -3.42643 | 37064 ft | 450 kts | 177° |
| 2026-04-28 21:23 | 48.24737 | -3.42206 | 37054 ft | 449 kts | 177° |
| 2026-04-28 21:24 | 48.18527 | -3.41772 | 37051 ft | 449 kts | 177° |
| 2026-04-28 21:24 | 48.12314 | -3.41339 | 37051 ft | 449 kts | 177° |
| 2026-04-28 21:25 | 48.06056 | -3.40903 | 37042 ft | 448 kts | 178° |
| 2026-04-28 21:25 | 47.99873 | -3.40474 | 37050 ft | 448 kts | 178° |
| 2026-04-28 21:26 | 47.93656 | -3.40043 | 37048 ft | 447 kts | 178° |
| 2026-04-28 21:26 | 47.87466 | -3.39616 | 37047 ft | 447 kts | 178° |
| 2026-04-28 21:27 | 47.81249 | -3.39188 | 37050 ft | 449 kts | 178° |
| 2026-04-28 21:27 | 47.74991 | -3.38758 | 37051 ft | 448 kts | 178° |
| 2026-04-28 21:28 | 47.68773 | -3.38331 | 37053 ft | 448 kts | 178° |
| 2026-04-28 21:28 | 47.62573 | -3.37907 | 37041 ft | 448 kts | 178° |
| 2026-04-28 21:29 | 47.56333 | -3.37481 | 37040 ft | 448 kts | 178° |
| 2026-04-28 21:29 | 47.50149 | -3.37061 | 37031 ft | 448 kts | 178° |
| 2026-04-28 21:30 | 47.43901 | -3.36638 | 37031 ft | 447 kts | 178° |
| 2026-04-28 21:30 | 47.37722 | -3.36216 | 37030 ft | 447 kts | 179° |
| 2026-04-28 21:31 | 47.31536 | -3.35798 | 37027 ft | 446 kts | 179° |
| 2026-04-28 21:31 | 47.25358 | -3.35383 | 37025 ft | 444 kts | 179° |
| 2026-04-28 21:32 | 47.19210 | -3.34968 | 37028 ft | 445 kts | 179° |
| 2026-04-28 21:32 | 47.12991 | -3.34549 | 37018 ft | 444 kts | 179° |
| 2026-04-28 21:33 | 47.06863 | -3.34139 | 37016 ft | 443 kts | 179° |
| 2026-04-28 21:33 | 47.00746 | -3.33728 | 37004 ft | 441 kts | 179° |
| 2026-04-28 21:34 | 46.94595 | -3.33320 | 37018 ft | 442 kts | 179° |
| 2026-04-28 21:34 | 46.88490 | -3.32911 | 37009 ft | 442 kts | 179° |
| 2026-04-28 21:35 | 46.82352 | -3.32504 | 37023 ft | 441 kts | 180° |
| 2026-04-28 21:35 | 46.76255 | -3.32100 | 37004 ft | 441 kts | 180° |
| 2026-04-28 21:36 | 46.70131 | -3.31700 | 37008 ft | 441 kts | 180° |
| 2026-04-28 21:36 | 46.64014 | -3.31301 | 37005 ft | 439 kts | 180° |
| 2026-04-28 21:37 | 46.57920 | -3.30899 | 36991 ft | 438 kts | 180° |
| 2026-04-28 21:37 | 46.51863 | -3.30500 | 37004 ft | 438 kts | 180° |
| 2026-04-28 21:38 | 46.45790 | -3.30102 | 36973 ft | 435 kts | 180° |
| 2026-04-28 21:38 | 46.39764 | -3.29703 | 36986 ft | 437 kts | 180° |
| 2026-04-28 21:39 | 46.33713 | -3.29311 | 36977 ft | 437 kts | 180° |
| 2026-04-28 21:39 | 46.27660 | -3.28918 | 36988 ft | 435 kts | 181° |
| 2026-04-28 21:40 | 46.21630 | -3.28526 | 36973 ft | 434 kts | 180° |
| 2026-04-28 21:40 | 46.15628 | -3.28138 | 36966 ft | 434 kts | 180° |
| 2026-04-28 21:41 | 46.09596 | -3.27745 | 36802 ft | 431 kts | 181° |
| 2026-04-28 21:41 | 46.06615 | -3.27556 | 36971 ft | 432 kts | 181° |
| 2026-04-28 21:41 | 46.03610 | -3.27364 | 36908 ft | 431 kts | 181° |
| 2026-04-28 21:42 | 46.00632 | -3.27175 | 37087 ft | 433 kts | 181° |
| 2026-04-28 21:42 | 45.97594 | -3.26985 | 36906 ft | 435 kts | 181° |
| 2026-04-28 21:42 | 45.91604 | -3.26598 | 36946 ft | 433 kts | 181° |
| 2026-04-28 21:43 | 45.85590 | -3.26208 | 36974 ft | 433 kts | 181° |
| 2026-04-28 21:43 | 45.79604 | -3.25824 | 36952 ft | 430 kts | 181° |
| 2026-04-28 21:44 | 45.73679 | -3.25442 | 36954 ft | 428 kts | 181° |
| 2026-04-28 21:44 | 45.67705 | -3.25065 | 36974 ft | 431 kts | 181° |
| 2026-04-28 21:45 | 45.61745 | -3.24688 | 36971 ft | 429 kts | 181° |
| 2026-04-28 21:45 | 45.55829 | -3.24315 | 36966 ft | 428 kts | 181° |
| 2026-04-28 21:46 | 45.49853 | -3.23940 | 36944 ft | 429 kts | 181° |
| 2026-04-28 21:46 | 45.43899 | -3.23563 | 36947 ft | 428 kts | 181° |
| 2026-04-28 21:47 | 45.37999 | -3.23184 | 36945 ft | 424 kts | 182° |
| 2026-04-28 21:47 | 45.32116 | -3.22816 | 36927 ft | 424 kts | 182° |
| 2026-04-28 21:48 | 45.26236 | -3.22453 | 36958 ft | 425 kts | 182° |
| 2026-04-28 21:48 | 45.20358 | -3.22082 | 36946 ft | 424 kts | 182° |
| 2026-04-28 21:49 | 45.14479 | -3.21719 | 36930 ft | 423 kts | 182° |
| 2026-04-28 21:49 | 45.08602 | -3.21353 | 36944 ft | 424 kts | 182° |
| 2026-04-28 21:50 | 45.02762 | -3.20990 | 36945 ft | 422 kts | 182° |
| 2026-04-28 21:50 | 44.96881 | -3.20618 | 36929 ft | 421 kts | 182° |
| 2026-04-28 21:51 | 44.91066 | -3.20259 | 36938 ft | 421 kts | 182° |
| 2026-04-28 21:51 | 44.85238 | -3.19899 | 36943 ft | 420 kts | 182° |
| 2026-04-28 21:52 | 44.79373 | -3.19539 | 36929 ft | 422 kts | 182° |
| 2026-04-28 21:52 | 44.73522 | -3.19176 | 36931 ft | 421 kts | 182° |
| 2026-04-28 21:53 | 44.67665 | -3.18813 | 36933 ft | 422 kts | 182° |
| 2026-04-28 21:53 | 44.61830 | -3.18460 | 36927 ft | 422 kts | 182° |
| 2026-04-28 21:54 | 44.55976 | -3.18104 | 36935 ft | 421 kts | 182° |
| 2026-04-28 21:54 | 44.50145 | -3.17746 | 36929 ft | 421 kts | 182° |
| 2026-04-28 21:55 | 44.44288 | -3.17393 | 36930 ft | 423 kts | 182° |
| 2026-04-28 21:55 | 44.38455 | -3.17038 | 36933 ft | 421 kts | 182° |
| 2026-04-28 21:56 | 44.32597 | -3.16676 | 36931 ft | 420 kts | 182° |
| 2026-04-28 21:56 | 44.26761 | -3.16322 | 36927 ft | 422 kts | 182° |
| 2026-04-28 21:57 | 44.20915 | -3.15975 | 36933 ft | 422 kts | 182° |
| 2026-04-28 21:57 | 44.15060 | -3.15624 | 36929 ft | 421 kts | 182° |
| 2026-04-28 21:58 | 44.09228 | -3.15144 | 36928 ft | 424 kts | 178° |
| 2026-04-28 21:58 | 44.06283 | -3.14332 | 36930 ft | 432 kts | 167° |
| 2026-04-28 21:58 | 44.03514 | -3.12718 | 36935 ft | 440 kts | 156° |
| 2026-04-28 21:59 | 43.98448 | -3.07776 | 36930 ft | 447 kts | 146° |
| 2026-04-28 22:00 | 43.91271 | -2.99607 | 36926 ft | 445 kts | 145° |
| 2026-04-28 22:00 | 43.86494 | -2.94142 | 36924 ft | 445 kts | 145° |
| 2026-04-28 22:01 | 43.81721 | -2.88751 | 36934 ft | 445 kts | 146° |
| 2026-04-28 22:01 | 43.76934 | -2.83379 | 36924 ft | 443 kts | 146° |
| 2026-04-28 22:02 | 43.72141 | -2.78023 | 36936 ft | 444 kts | 146° |
| 2026-04-28 22:02 | 43.67358 | -2.72689 | 36920 ft | 444 kts | 146° |
| 2026-04-28 22:03 | 43.62565 | -2.67354 | 36940 ft | 443 kts | 146° |
| 2026-04-28 22:03 | 43.57763 | -2.62030 | 36932 ft | 442 kts | 146° |
| 2026-04-28 22:04 | 43.52954 | -2.56712 | 36944 ft | 443 kts | 146° |
| 2026-04-28 22:04 | 43.48164 | -2.51427 | 36938 ft | 442 kts | 146° |
| 2026-04-28 22:05 | 43.43392 | -2.46168 | 36916 ft | 441 kts | 146° |
| 2026-04-28 22:05 | 43.38601 | -2.40898 | 36918 ft | 441 kts | 146° |
| 2026-04-28 22:06 | 43.33823 | -2.35654 | 36927 ft | 440 kts | 146° |
| 2026-04-28 22:06 | 43.29026 | -2.30402 | 36915 ft | 440 kts | 147° |
| 2026-04-28 22:07 | 43.24263 | -2.25195 | 36911 ft | 441 kts | 147° |
| 2026-04-28 22:07 | 43.19455 | -2.19950 | 36912 ft | 441 kts | 147° |
| 2026-04-28 22:08 | 43.14659 | -2.14729 | 36914 ft | 441 kts | 147° |
| 2026-04-28 22:08 | 43.09839 | -2.09492 | 36913 ft | 441 kts | 146° |
| 2026-04-28 22:09 | 43.05052 | -2.04304 | 36914 ft | 439 kts | 147° |
| 2026-04-28 22:09 | 43.00296 | -1.99166 | 36921 ft | 439 kts | 147° |
| 2026-04-28 22:10 | 42.95507 | -1.94000 | 36926 ft | 439 kts | 146° |
| 2026-04-28 22:10 | 42.90723 | -1.88851 | 36929 ft | 440 kts | 146° |
| 2026-04-28 22:11 | 42.85907 | -1.83674 | 36933 ft | 440 kts | 146° |
| 2026-04-28 22:11 | 42.81051 | -1.78595 | 36926 ft | 438 kts | 150° |
| 2026-04-28 22:12 | 42.75650 | -1.75205 | 36931 ft | 422 kts | 172° |
| 2026-04-28 22:12 | 42.69902 | -1.74707 | 36930 ft | 414 kts | 188° |
| 2026-04-28 22:13 | 42.64335 | -1.76226 | 36928 ft | 404 kts | 205° |
| 2026-04-28 22:13 | 42.59250 | -1.79381 | 36924 ft | 401 kts | 210° |
| 2026-04-28 22:14 | 42.54311 | -1.82810 | 36919 ft | 400 kts | 210° |
| 2026-04-28 22:14 | 42.49358 | -1.86232 | 36919 ft | 401 kts | 210° |
| 2026-04-28 22:15 | 42.44328 | -1.89640 | 36917 ft | 401 kts | 209° |
| 2026-04-28 22:15 | 42.39354 | -1.92975 | 36917 ft | 401 kts | 209° |
| 2026-04-28 22:16 | 42.34343 | -1.96321 | 36925 ft | 402 kts | 209° |
| 2026-04-28 22:16 | 42.29335 | -1.99662 | 36914 ft | 401 kts | 209° |
| 2026-04-28 22:17 | 42.24336 | -2.02985 | 36920 ft | 401 kts | 209° |
| 2026-04-28 22:17 | 42.19348 | -2.06285 | 36926 ft | 400 kts | 209° |
| 2026-04-28 22:18 | 42.14359 | -2.09582 | 36919 ft | 401 kts | 209° |
| 2026-04-28 22:18 | 42.09358 | -2.12880 | 36920 ft | 400 kts | 209° |
| 2026-04-28 22:19 | 42.04350 | -2.16175 | 36921 ft | 400 kts | 209° |
| 2026-04-28 22:19 | 41.99348 | -2.19465 | 36930 ft | 401 kts | 209° |
| 2026-04-28 22:20 | 41.94338 | -2.22756 | 36932 ft | 400 kts | 209° |
| 2026-04-28 22:20 | 41.89321 | -2.26045 | 36937 ft | 400 kts | 209° |
| 2026-04-28 22:21 | 41.84324 | -2.29313 | 36935 ft | 400 kts | 209° |
| 2026-04-28 22:21 | 41.79324 | -2.32579 | 36937 ft | 399 kts | 209° |
| 2026-04-28 22:22 | 41.74302 | -2.35846 | 36941 ft | 402 kts | 208° |
| 2026-04-28 22:22 | 41.69267 | -2.39122 | 36950 ft | 403 kts | 208° |
| 2026-04-28 22:23 | 41.64220 | -2.42402 | 36948 ft | 402 kts | 208° |
| 2026-04-28 22:23 | 41.59172 | -2.45676 | 36943 ft | 403 kts | 208° |
| 2026-04-28 22:24 | 41.54127 | -2.48941 | 36937 ft | 402 kts | 208° |
| 2026-04-28 22:24 | 41.49079 | -2.52202 | 36934 ft | 404 kts | 208° |
| 2026-04-28 22:25 | 41.44026 | -2.55459 | 36936 ft | 403 kts | 208° |
| 2026-04-28 22:25 | 41.38982 | -2.58703 | 36937 ft | 405 kts | 208° |
| 2026-04-28 22:26 | 41.33855 | -2.61727 | 36935 ft | 405 kts | 201° |
| 2026-04-28 22:26 | 41.31102 | -2.62584 | 36937 ft | 409 kts | 190° |
| 2026-04-28 22:26 | 41.28222 | -2.62758 | 36941 ft | 414 kts | 183° |
| 2026-04-28 22:27 | 41.22437 | -2.62336 | 36940 ft | 415 kts | 179° |
| 2026-04-28 22:27 | 41.16696 | -2.61711 | 36948 ft | 416 kts | 179° |
| 2026-04-28 22:28 | 41.10917 | -2.61119 | 36951 ft | 416 kts | 180° |
| 2026-04-28 22:28 | 41.05138 | -2.60567 | 36950 ft | 416 kts | 180° |
| 2026-04-28 22:29 | 40.99333 | -2.60038 | 36952 ft | 416 kts | 180° |
| 2026-04-28 22:29 | 40.93568 | -2.59519 | 36956 ft | 416 kts | 180° |
| 2026-04-28 22:30 | 40.87780 | -2.58995 | 36954 ft | 416 kts | 180° |
| 2026-04-28 22:30 | 40.82008 | -2.58475 | 36953 ft | 416 kts | 179° |
| 2026-04-28 22:31 | 40.76236 | -2.57958 | 36948 ft | 416 kts | 179° |
| 2026-04-28 22:31 | 40.70464 | -2.57438 | 36945 ft | 415 kts | 179° |
| 2026-04-28 22:32 | 40.64661 | -2.56917 | 36946 ft | 416 kts | 179° |
| 2026-04-28 22:32 | 40.58880 | -2.56400 | 36949 ft | 417 kts | 179° |
| 2026-04-28 22:33 | 40.53109 | -2.55886 | 36817 ft | 418 kts | 179° |
| 2026-04-28 22:33 | 40.50193 | -2.55628 | 36519 ft | 418 kts | 179° |
| 2026-04-28 22:33 | 40.47318 | -2.55373 | 36282 ft | 414 kts | 179° |
| 2026-04-28 22:33 | 40.44457 | -2.55118 | 36049 ft | 410 kts | 179° |
| 2026-04-28 22:34 | 40.41625 | -2.54824 | 35816 ft | 407 kts | 176° |
| 2026-04-28 22:34 | 40.38817 | -2.54220 | 35580 ft | 408 kts | 169° |
| 2026-04-28 22:34 | 40.36127 | -2.52973 | 35349 ft | 411 kts | 158° |
| 2026-04-28 22:34 | 40.33631 | -2.51104 | 35116 ft | 414 kts | 150° |
| 2026-04-28 22:35 | 40.31274 | -2.48980 | 34886 ft | 413 kts | 148° |
| 2026-04-28 22:35 | 40.28956 | -2.46748 | 34648 ft | 411 kts | 147° |
| 2026-04-28 22:35 | 40.26674 | -2.44500 | 34384 ft | 409 kts | 147° |
| 2026-04-28 22:35 | 40.24408 | -2.42262 | 34099 ft | 407 kts | 147° |
| 2026-04-28 22:36 | 40.22154 | -2.40045 | 33819 ft | 405 kts | 147° |
| 2026-04-28 22:36 | 40.19918 | -2.37851 | 33539 ft | 404 kts | 147° |
| 2026-04-28 22:36 | 40.17677 | -2.35657 | 33258 ft | 403 kts | 147° |
| 2026-04-28 22:36 | 40.15407 | -2.33443 | 32975 ft | 402 kts | 147° |
| 2026-04-28 22:37 | 40.13163 | -2.31261 | 32693 ft | 399 kts | 147° |
| 2026-04-28 22:37 | 40.10949 | -2.29112 | 32417 ft | 398 kts | 147° |
| 2026-04-28 22:37 | 40.08743 | -2.26975 | 32140 ft | 396 kts | 147° |
| 2026-04-28 22:37 | 40.06520 | -2.24826 | 31860 ft | 394 kts | 147° |
| 2026-04-28 22:38 | 40.04319 | -2.22702 | 31584 ft | 393 kts | 147° |
| 2026-04-28 22:38 | 40.02139 | -2.20601 | 31307 ft | 391 kts | 147° |
| 2026-04-28 22:38 | 39.99952 | -2.18497 | 31029 ft | 389 kts | 147° |
| 2026-04-28 22:38 | 39.97765 | -2.16394 | 30750 ft | 388 kts | 147° |
| 2026-04-28 22:39 | 39.95599 | -2.14314 | 30479 ft | 387 kts | 147° |
| 2026-04-28 22:39 | 39.93445 | -2.12244 | 30203 ft | 385 kts | 147° |
| 2026-04-28 22:39 | 39.91301 | -2.10187 | 29931 ft | 383 kts | 147° |
| 2026-04-28 22:39 | 39.89148 | -2.08120 | 29650 ft | 382 kts | 147° |
| 2026-04-28 22:40 | 39.87017 | -2.06077 | 29379 ft | 381 kts | 146° |
| 2026-04-28 22:40 | 39.84884 | -2.04037 | 29110 ft | 380 kts | 147° |
| 2026-04-28 22:40 | 39.82769 | -2.02023 | 28838 ft | 377 kts | 147° |
| 2026-04-28 22:40 | 39.80633 | -1.99983 | 28565 ft | 377 kts | 147° |
| 2026-04-28 22:41 | 39.78518 | -1.97963 | 28296 ft | 376 kts | 146° |
| 2026-04-28 22:41 | 39.76433 | -1.95970 | 28032 ft | 374 kts | 146° |
| 2026-04-28 22:41 | 39.74335 | -1.93962 | 27765 ft | 373 kts | 146° |
| 2026-04-28 22:41 | 39.72239 | -1.91963 | 27492 ft | 372 kts | 146° |
| 2026-04-28 22:42 | 39.70161 | -1.89982 | 27224 ft | 371 kts | 147° |
| 2026-04-28 22:42 | 39.68084 | -1.88006 | 26960 ft | 370 kts | 146° |
| 2026-04-28 22:42 | 39.66008 | -1.86037 | 26693 ft | 369 kts | 147° |
| 2026-04-28 22:42 | 39.63926 | -1.84068 | 26427 ft | 367 kts | 146° |
| 2026-04-28 22:43 | 39.61872 | -1.82119 | 26159 ft | 365 kts | 146° |
| 2026-04-28 22:43 | 39.59827 | -1.80175 | 25895 ft | 364 kts | 146° |
| 2026-04-28 22:43 | 39.57803 | -1.78252 | 25633 ft | 363 kts | 146° |
| 2026-04-28 22:43 | 39.55760 | -1.76316 | 25367 ft | 361 kts | 146° |
| 2026-04-28 22:44 | 39.53740 | -1.74404 | 25108 ft | 360 kts | 146° |
| 2026-04-28 22:44 | 39.51736 | -1.72507 | 24847 ft | 358 kts | 146° |
| 2026-04-28 22:44 | 39.49715 | -1.70597 | 24579 ft | 357 kts | 146° |
| 2026-04-28 22:44 | 39.47733 | -1.68726 | 24319 ft | 355 kts | 146° |
| 2026-04-28 22:45 | 39.45745 | -1.66850 | 24056 ft | 353 kts | 146° |
| 2026-04-28 22:45 | 39.43735 | -1.64956 | 23790 ft | 352 kts | 146° |
| 2026-04-28 22:45 | 39.41772 | -1.63105 | 23528 ft | 351 kts | 146° |
| 2026-04-28 22:45 | 39.39813 | -1.61261 | 23266 ft | 350 kts | 146° |
| 2026-04-28 22:46 | 39.37860 | -1.59423 | 23014 ft | 348 kts | 146° |
| 2026-04-28 22:46 | 39.35890 | -1.57571 | 22759 ft | 347 kts | 146° |
| 2026-04-28 22:46 | 39.33945 | -1.55744 | 22506 ft | 345 kts | 146° |
| 2026-04-28 22:46 | 39.32006 | -1.53924 | 22254 ft | 343 kts | 146° |
| 2026-04-28 22:47 | 39.30084 | -1.52122 | 22005 ft | 342 kts | 146° |
| 2026-04-28 22:47 | 39.28148 | -1.50308 | 21753 ft | 340 kts | 146° |
| 2026-04-28 22:47 | 39.26234 | -1.48516 | 21502 ft | 339 kts | 145° |
| 2026-04-28 22:47 | 39.24340 | -1.46744 | 21253 ft | 338 kts | 145° |
| 2026-04-28 22:48 | 39.22442 | -1.44965 | 21005 ft | 336 kts | 145° |
| 2026-04-28 22:48 | 39.20546 | -1.43190 | 20757 ft | 335 kts | 145° |
| 2026-04-28 22:48 | 39.18648 | -1.41416 | 20509 ft | 334 kts | 145° |
| 2026-04-28 22:48 | 39.16782 | -1.39674 | 20264 ft | 333 kts | 145° |
| 2026-04-28 22:49 | 39.14916 | -1.37932 | 20018 ft | 331 kts | 145° |
| 2026-04-28 22:49 | 39.13025 | -1.36168 | 19769 ft | 330 kts | 145° |
| 2026-04-28 22:49 | 39.11185 | -1.34453 | 19524 ft | 329 kts | 146° |
| 2026-04-28 22:49 | 39.09323 | -1.32718 | 19276 ft | 327 kts | 146° |
| 2026-04-28 22:50 | 39.07478 | -1.31001 | 19030 ft | 326 kts | 146° |
| 2026-04-28 22:50 | 39.05660 | -1.29313 | 18791 ft | 325 kts | 146° |
| 2026-04-28 22:50 | 39.03819 | -1.27600 | 18543 ft | 323 kts | 146° |
| 2026-04-28 22:50 | 39.02010 | -1.25914 | 18237 ft | 319 kts | 146° |
| 2026-04-28 22:51 | 39.00219 | -1.24249 | 17839 ft | 317 kts | 146° |
| 2026-04-28 22:51 | 38.98459 | -1.22616 | 17439 ft | 316 kts | 146° |
| 2026-04-28 22:51 | 38.96673 | -1.20960 | 17031 ft | 314 kts | 146° |
| 2026-04-28 22:51 | 38.94903 | -1.19318 | 16622 ft | 313 kts | 146° |
| 2026-04-28 22:52 | 38.93154 | -1.17698 | 16222 ft | 311 kts | 146° |
| 2026-04-28 22:52 | 38.91407 | -1.16082 | 15821 ft | 310 kts | 146° |
| 2026-04-28 22:52 | 38.89658 | -1.14467 | 15428 ft | 308 kts | 146° |
| 2026-04-28 22:52 | 38.87918 | -1.12862 | 15029 ft | 306 kts | 146° |
| 2026-04-28 22:53 | 38.86211 | -1.11288 | 14638 ft | 305 kts | 146° |
| 2026-04-28 22:53 | 38.84486 | -1.09693 | 14243 ft | 303 kts | 146° |
| 2026-04-28 22:53 | 38.82789 | -1.08126 | 13854 ft | 301 kts | 146° |
| 2026-04-28 22:53 | 38.81083 | -1.06552 | 13465 ft | 300 kts | 146° |
| 2026-04-28 22:54 | 38.79409 | -1.05008 | 13080 ft | 298 kts | 146° |
| 2026-04-28 22:54 | 38.77722 | -1.03455 | 12694 ft | 296 kts | 146° |
| 2026-04-28 22:54 | 38.76070 | -1.01935 | 12317 ft | 294 kts | 146° |
| 2026-04-28 22:54 | 38.74406 | -1.00404 | 11931 ft | 292 kts | 146° |
| 2026-04-28 22:55 | 38.72752 | -0.98884 | 11549 ft | 291 kts | 145° |
| 2026-04-28 22:55 | 38.71136 | -0.97398 | 11180 ft | 288 kts | 145° |
| 2026-04-28 22:55 | 38.69498 | -0.95894 | 10802 ft | 287 kts | 145° |
| 2026-04-28 22:55 | 38.67895 | -0.94424 | 10437 ft | 284 kts | 145° |
| 2026-04-28 22:56 | 38.66317 | -0.92975 | 10487 ft | 270 kts | 145° |
| 2026-04-28 22:56 | 38.64771 | -0.91557 | 10526 ft | 275 kts | 146° |
| 2026-04-28 22:56 | 38.63184 | -0.90107 | 10259 ft | 285 kts | 145° |
| 2026-04-28 22:56 | 38.61585 | -0.88644 | 10124 ft | 276 kts | 145° |
| 2026-04-28 22:57 | 38.60038 | -0.87227 | 9871 ft | 270 kts | 145° |
| 2026-04-28 22:57 | 38.58505 | -0.85825 | 9517 ft | 269 kts | 145° |
| 2026-04-28 22:57 | 38.56989 | -0.84438 | 9198 ft | 266 kts | 145° |
| 2026-04-28 22:57 | 38.55482 | -0.83076 | 8989 ft | 259 kts | 147° |
| 2026-04-28 22:58 | 38.53936 | -0.82032 | 8851 ft | 249 kts | 162° |
| 2026-04-28 22:58 | 38.52226 | -0.81850 | 8652 ft | 243 kts | 187° |
| 2026-04-28 22:58 | 38.50561 | -0.82274 | 8309 ft | 244 kts | 192° |
| 2026-04-28 22:58 | 38.48905 | -0.82754 | 7994 ft | 243 kts | 190° |
| 2026-04-28 22:59 | 38.47266 | -0.83171 | 7686 ft | 242 kts | 188° |
| 2026-04-28 22:59 | 38.45584 | -0.83561 | 7372 ft | 241 kts | 188° |
| 2026-04-28 22:59 | 38.43927 | -0.83930 | 7063 ft | 240 kts | 188° |
| 2026-04-28 22:59 | 38.42290 | -0.84293 | 6737 ft | 240 kts | 187° |
| 2026-04-28 23:00 | 38.40662 | -0.84689 | 6451 ft | 239 kts | 193° |
| 2026-04-28 23:00 | 38.39168 | -0.85633 | 6254 ft | 237 kts | 217° |
| 2026-04-28 23:00 | 38.38131 | -0.87238 | 6040 ft | 237 kts | 241° |
| 2026-04-28 23:00 | 38.37699 | -0.89253 | 5731 ft | 240 kts | 267° |
| 2026-04-28 23:01 | 38.37859 | -0.91378 | 5451 ft | 240 kts | 280° |
| 2026-04-28 23:01 | 38.38126 | -0.93446 | 5191 ft | 238 kts | 272° |
| 2026-04-28 23:01 | 38.37942 | -0.95496 | 5097 ft | 227 kts | 249° |
| 2026-04-28 23:01 | 38.37212 | -0.97269 | 5064 ft | 226 kts | 229° |
| 2026-04-28 23:02 | 38.36060 | -0.98610 | 5308 ft | 226 kts | 210° |
| 2026-04-28 23:02 | 38.34630 | -0.99398 | 5573 ft | 226 kts | 191° |
| 2026-04-28 23:02 | 38.33074 | -0.99441 | 5813 ft | 223 kts | 166° |
| 2026-04-28 23:02 | 38.31670 | -0.98643 | 5919 ft | 224 kts | 142° |
| 2026-04-28 23:03 | 38.30647 | -0.97127 | 5751 ft | 223 kts | 116° |
| 2026-04-28 23:03 | 38.30248 | -0.95261 | 5567 ft | 220 kts | 96° |
| 2026-04-28 23:03 | 38.30378 | -0.93329 | 5338 ft | 221 kts | 77° |
| 2026-04-28 23:03 | 38.30925 | -0.91505 | 5020 ft | 221 kts | 66° |
| 2026-04-28 23:04 | 38.31590 | -0.89772 | 4677 ft | 215 kts | 65° |
| 2026-04-28 23:04 | 38.31861 | -0.86231 | 4009 ft | 200 kts | 108° |
| 2026-04-28 23:04 | 38.31455 | -0.84609 | 3964 ft | 179 kts | 101° |
| 2026-04-28 23:05 | 38.31380 | -0.83113 | 3950 ft | 163 kts | 79° |
| 2026-04-28 23:05 | 38.31539 | -0.81690 | 3936 ft | 162 kts | 88° |
| 2026-04-28 23:05 | 38.31490 | -0.80236 | 3760 ft | 167 kts | 94° |
| 2026-04-28 23:05 | 38.31354 | -0.78787 | 3501 ft | 160 kts | 96° |
| 2026-04-28 23:06 | 38.31193 | -0.77424 | 3267 ft | 151 kts | 97° |
| 2026-04-28 23:06 | 38.31029 | -0.76136 | 3151 ft | 144 kts | 97° |
| 2026-04-28 23:06 | 38.30861 | -0.74862 | 2898 ft | 145 kts | 97° |
| 2026-04-28 23:06 | 38.30690 | -0.73598 | 2654 ft | 142 kts | 96° |
| 2026-04-28 23:07 | 38.30521 | -0.72366 | 2497 ft | 143 kts | 96° |
| 2026-04-28 23:07 | 38.30349 | -0.71101 | 2278 ft | 144 kts | 96° |
| 2026-04-28 23:07 | 38.30177 | -0.69858 | 2087 ft | 142 kts | 96° |
| 2026-04-28 23:07 | 38.30005 | -0.68611 | 1904 ft | 146 kts | 96° |
| 2026-04-28 23:08 | 38.29830 | -0.67347 | 1682 ft | 144 kts | 96° |
| 2026-04-28 23:08 | 38.29657 | -0.66101 | 1507 ft | 143 kts | 96° |
| 2026-04-28 23:08 | 38.29483 | -0.64833 | 1311 ft | 145 kts | 97° |
| 2026-04-28 23:08 | 38.29303 | -0.63556 | 1108 ft | 145 kts | 97° |
| 2026-04-28 23:09 | 38.29130 | -0.62305 | 896 ft | 145 kts | 96° |
| 2026-04-28 23:09 | 38.28946 | -0.61064 | 718 ft | 142 kts | 97° |
| 2026-04-28 23:09 | 38.28779 | -0.59808 | 514 ft | 146 kts | 98° |
| 2026-04-28 23:09 | 38.28595 | -0.58551 | 334 ft | 147 kts | 98° |
| 2026-04-28 23:10 | 38.28414 | -0.57259 | 182 ft | 147 kts | 98° |
| 2026-04-28 23:10 | 38.28220 | -0.55840 | 177 ft | 184 kts | 97° |
| 2026-04-28 23:10 | 38.28061 | -0.54623 | 1786 ft | 112 kts | 95° |
| 2026-04-28 23:10 | 38.27970 | -0.53892 | 2298 ft | 119 kts | 92° |
| 2026-04-28 23:11 | 38.27904 | -0.52597 | 2534 ft | 149 kts | 90° |
| 2026-04-28 23:11 | 38.27855 | -0.51646 | 3555 ft | 112 kts | 92° |
| 2026-04-28 23:11 | 38.27689 | -0.50414 | 3221 ft | 160 kts | 103° |
| 2026-04-28 23:11 | 38.27339 | -0.49063 | 3197 ft | 161 kts | 108° |
| 2026-04-28 23:12 | 38.26912 | -0.47742 | 3191 ft | 161 kts | 104° |
| 2026-04-28 23:12 | 38.26787 | -0.46257 | 2902 ft | 183 kts | 91° |
| 2026-04-28 23:12 | 38.26694 | -0.44520 | 2461 ft | 210 kts | 93° |
| 2026-04-28 23:12 | 38.26415 | -0.42679 | 2366 ft | 200 kts | 100° |
| 2026-04-28 23:13 | 38.26136 | -0.40987 | 2379 ft | 194 kts | 98° |
| 2026-04-28 23:13 | 38.25891 | -0.39315 | 2384 ft | 192 kts | 97° |
| 2026-04-28 23:13 | 38.25661 | -0.37655 | 2386 ft | 190 kts | 97° |
| 2026-04-28 23:13 | 38.25428 | -0.35993 | 2387 ft | 188 kts | 97° |
| 2026-04-28 23:14 | 38.25195 | -0.34350 | 2401 ft | 200 kts | 98° |
| 2026-04-28 23:14 | 38.24935 | -0.32498 | 2412 ft | 217 kts | 98° |
| 2026-04-28 23:14 | 38.24665 | -0.30596 | 2410 ft | 220 kts | 98° |
| 2026-04-28 23:14 | 38.24315 | -0.28680 | 2410 ft | 221 kts | 106° |
| 2026-04-28 23:15 | 38.23967 | -0.26803 | 2418 ft | 218 kts | 93° |
| 2026-04-28 23:15 | 38.23838 | -0.24915 | 2489 ft | 215 kts | 95° |